Time;durP1;ratioP1;P1;durP2;ratioP2;P2;SDS_P1;SDS_P2;PMS_P1;PMS_P2;Temp;Humidity;BMP_temperature;BMP_pressure;BME280_temperature;BME280_humidity;BME280_pressure;Samples;Min_cycle;Max_cycle;Signal;HPM_P1;HPM_P2
2022/11/09 00:01:16;;;;;;;3.85;1.90;;;12.80;99.90;;;;;;5018748;28;20045;-86
2022/11/09 00:03:42;;;;;;;5.32;1.80;;;12.80;99.90;;;;;;5047205;28;20056;-85
2022/11/09 00:06:08;;;;;;;6.57;2.20;;;12.80;99.90;;;;;;5017500;28;20037;-85
2022/11/09 00:08:36;;;;;;;4.63;2.10;;;12.80;99.90;;;;;;5025876;28;20147;-86
2022/11/09 00:11:05;;;;;;;7.55;2.42;;;12.90;99.90;;;;;;5055476;28;20049;-86
2022/11/09 00:13:33;;;;;;;5.43;2.40;;;12.80;99.90;;;;;;5038263;28;20045;-86
2022/11/09 00:16:00;;;;;;;4.47;2.50;;;13.70;99.90;;;;;;5054468;28;20080;-86
2022/11/09 00:18:29;;;;;;;9.45;2.70;;;13.60;99.90;;;;;;5053731;28;20051;-86
2022/11/09 00:20:55;;;;;;;5.75;2.55;;;13.50;99.90;;;;;;5035296;28;20120;-86
2022/11/09 00:23:21;;;;;;;5.38;2.60;;;12.80;99.90;;;;;;5036144;28;20128;-86
2022/11/09 00:25:47;;;;;;;6.63;3.00;;;13.80;99.90;;;;;;5047883;28;20106;-86
2022/11/09 00:28:13;;;;;;;6.63;2.40;;;13.60;99.90;;;;;;5004375;28;20046;-86
2022/11/09 00:30:40;;;;;;;5.43;2.50;;;13.60;99.90;;;;;;5038040;28;20039;-86
2022/11/09 00:33:06;;;;;;;5.32;2.42;;;13.90;99.90;;;;;;5054375;28;20467;-86
2022/11/09 00:35:31;;;;;;;6.68;2.47;;;13.20;99.90;;;;;;5026170;28;20514;-86
2022/11/09 00:37:57;;;;;;;5.43;2.47;;;14.20;99.90;;;;;;5016875;28;20045;-86
2022/11/09 00:40:23;;;;;;;7.10;2.70;;;12.80;99.90;;;;;;5050619;28;20044;-87
2022/11/09 00:42:50;;;;;;;7.60;2.30;;;12.80;99.90;;;;;;5054114;28;20049;-87
2022/11/09 00:45:16;;;;;;;6.32;2.63;;;12.90;99.90;;;;;;5037197;28;20076;-86
2022/11/09 00:47:42;;;;;;;5.35;2.70;;;13.30;99.90;;;;;;5042512;28;20540;-86
2022/11/09 00:50:08;;;;;;;8.85;2.83;;;13.10;99.90;;;;;;5034883;28;20045;-86
2022/11/09 00:52:34;;;;;;;6.63;2.90;;;12.80;99.90;;;;;;5016506;28;20346;-87
2022/11/09 00:55:00;;;;;;;7.00;2.92;;;13.20;99.90;;;;;;5040691;28;20457;-86
2022/11/09 00:57:25;;;;;;;6.07;2.65;;;13.00;99.90;;;;;;5017300;28;20497;-86
2022/11/09 00:59:52;;;;;;;7.03;3.45;;;12.90;99.90;;;;;;5035034;28;20184;-86
2022/11/09 01:02:19;;;;;;;5.93;3.00;;;12.90;99.90;;;;;;5014386;28;20080;-85
2022/11/09 01:04:44;;;;;;;7.50;3.13;;;13.90;99.90;;;;;;5044266;28;20087;-85
2022/11/09 01:07:10;;;;;;;5.88;2.60;;;12.90;99.90;;;;;;5043360;28;20073;-85
2022/11/09 01:09:35;;;;;;;5.75;2.90;;;12.90;99.90;;;;;;5051384;28;20051;-85
2022/11/09 01:12:01;;;;;;;5.55;2.78;;;12.90;99.90;;;;;;5031342;28;20056;-85
2022/11/09 01:14:27;;;;;;;4.90;2.50;;;12.90;99.90;;;;;;5033401;28;20151;-85
2022/11/09 01:16:52;;;;;;;8.57;2.70;;;12.90;99.90;;;;;;5032720;28;20045;-84
2022/11/09 01:19:18;;;;;;;6.25;2.92;;;12.90;99.90;;;;;;5015521;28;20045;-84
2022/11/09 01:21:44;;;;;;;7.43;2.63;;;13.20;99.90;;;;;;5033693;28;20092;-85
2022/11/09 01:24:09;;;;;;;6.38;2.83;;;12.90;99.90;;;;;;5037965;28;20048;-85
2022/11/09 01:26:35;;;;;;;6.72;3.13;;;13.00;99.90;;;;;;5048593;28;20033;-85
2022/11/09 01:29:01;;;;;;;6.82;2.85;;;12.90;99.90;;;;;;5035153;28;20176;-85
2022/11/09 01:31:27;;;;;;;9.82;3.40;;;13.50;99.90;;;;;;5015794;28;20034;-84
2022/11/09 01:33:53;;;;;;;6.97;2.88;;;12.90;99.90;;;;;;5034229;28;20049;-85
2022/11/09 01:36:21;;;;;;;12.38;2.72;;;12.90;99.90;;;;;;5036489;28;20045;-84
2022/11/09 01:38:47;;;;;;;7.00;2.67;;;13.00;99.90;;;;;;5037080;28;20120;-84
2022/11/09 01:41:25;;;;;;;9.02;2.38;;;14.20;99.90;;;;;;5018573;28;20045;-85
2022/11/09 01:44:09;;;;;;;7.25;2.40;;;13.00;99.90;;;;;;5017068;28;20053;-85
2022/11/09 01:46:39;;;;;;;10.27;3.00;;;13.10;99.90;;;;;;5034794;28;20051;-86
2022/11/09 01:49:28;;;;;;;10.18;2.72;;;13.10;99.90;;;;;;5022959;28;20208;-85
2022/11/09 01:52:01;;;;;;;8.52;3.25;;;13.10;99.90;;;;;;5043230;28;20528;-85
2022/11/09 01:54:30;;;;;;;9.77;3.25;;;14.20;99.90;;;;;;5034658;28;20048;-85
2022/11/09 01:57:00;;;;;;;11.48;2.60;;;13.20;99.90;;;;;;5033953;28;20041;-85
2022/11/09 01:59:29;;;;;;;10.82;3.13;;;13.20;99.90;;;;;;5034368;28;20050;-85
2022/11/09 02:01:55;;;;;;;8.30;2.88;;;14.30;99.90;;;;;;5037455;28;20067;-84
2022/11/09 02:04:32;;;;;;;8.20;2.60;;;13.10;99.90;;;;;;5063861;28;20043;-85
2022/11/09 02:06:58;;;;;;;12.00;3.33;;;13.90;99.90;;;;;;5053328;28;20492;-85
2022/11/09 02:09:30;;;;;;;7.75;2.97;;;13.20;99.90;;;;;;5068743;28;20123;-85
2022/11/09 02:11:55;;;;;;;8.70;2.80;;;13.20;99.90;;;;;;5073100;28;20055;-85
2022/11/09 02:14:25;;;;;;;7.65;2.50;;;13.10;99.90;;;;;;5055239;28;20493;-85
2022/11/09 02:16:50;;;;;;;7.20;2.85;;;13.10;99.90;;;;;;5053871;28;20045;-85
2022/11/09 02:19:16;;;;;;;9.75;2.92;;;13.80;99.90;;;;;;5054244;28;20102;-85
2022/11/09 02:21:42;;;;;;;11.45;2.75;;;14.00;99.90;;;;;;5071170;28;20036;-85
2022/11/09 02:24:08;;;;;;;9.82;2.40;;;13.10;99.90;;;;;;5072872;28;20044;-85
2022/11/09 02:26:38;;;;;;;10.02;3.15;;;13.10;99.90;;;;;;5038386;28;20032;-85
2022/11/09 02:29:07;;;;;;;8.32;2.65;;;13.10;99.90;;;;;;5060274;28;20044;-85
2022/11/09 02:31:37;;;;;;;12.55;2.90;;;13.20;99.90;;;;;;5044808;28;20083;-84
2022/11/09 02:34:07;;;;;;;11.48;3.03;;;13.10;99.90;;;;;;5048354;28;20390;-85
2022/11/09 02:36:33;;;;;;;10.10;2.72;;;13.00;99.90;;;;;;5051679;28;20404;-85
2022/11/09 02:38:59;;;;;;;9.18;2.92;;;13.10;99.90;;;;;;5018729;28;20155;-85
2022/11/09 02:41:26;;;;;;;8.43;2.75;;;13.00;99.90;;;;;;5053346;28;20045;-85
2022/11/09 02:43:53;;;;;;;7.00;2.67;;;12.90;99.90;;;;;;5034777;28;20041;-85
2022/11/09 02:46:24;;;;;;;9.77;2.58;;;13.00;99.90;;;;;;5053467;28;20122;-84
2022/11/09 02:48:50;;;;;;;12.93;3.10;;;13.00;99.90;;;;;;5045609;28;20054;-85
2022/11/09 02:51:15;;;;;;;11.02;2.90;;;12.90;99.90;;;;;;5059052;28;20049;-85
2022/11/09 02:53:41;;;;;;;6.10;2.53;;;12.90;99.90;;;;;;5035009;28;20080;-85
2022/11/09 02:56:06;;;;;;;10.45;2.88;;;13.90;99.90;;;;;;5034635;28;20045;-85
2022/11/09 02:58:32;;;;;;;9.15;2.90;;;13.90;99.90;;;;;;5049071;28;20051;-85
2022/11/09 03:00:58;;;;;;;10.82;2.72;;;12.90;99.90;;;;;;5048475;28;20089;-85
2022/11/09 03:03:23;;;;;;;10.85;2.97;;;13.40;99.90;;;;;;5015470;28;20084;-85
2022/11/09 03:05:49;;;;;;;8.80;3.13;;;14.20;99.90;;;;;;5031948;28;20049;-84
2022/11/09 03:08:14;;;;;;;6.90;2.72;;;12.80;99.90;;;;;;5040231;28;20501;-85
2022/11/09 03:10:40;;;;;;;10.15;3.00;;;12.80;99.90;;;;;;5032591;28;20049;-85
2022/11/09 03:13:06;;;;;;;8.63;2.80;;;12.80;99.90;;;;;;5047370;28;20557;-85
2022/11/09 03:15:31;;;;;;;12.35;2.97;;;12.90;99.90;;;;;;5014366;28;20049;-85
2022/11/09 03:17:57;;;;;;;8.40;2.78;;;13.30;99.90;;;;;;5032210;28;20046;-85
2022/11/09 03:20:22;;;;;;;7.75;2.72;;;12.80;99.90;;;;;;5032239;28;20042;-85
2022/11/09 03:22:48;;;;;;;10.73;2.72;;;13.90;99.90;;;;;;5032002;28;20045;-85
2022/11/09 03:25:14;;;;;;;9.85;2.60;;;12.80;99.90;;;;;;5014214;28;20034;-85
2022/11/09 03:27:39;;;;;;;13.10;2.55;;;12.90;99.90;;;;;;5015136;28;20116;-85
2022/11/09 03:30:06;;;;;;;8.90;2.40;;;13.50;99.90;;;;;;5015107;28;20041;-85
2022/11/09 03:32:31;;;;;;;7.07;2.25;;;12.90;99.90;;;;;;5014978;28;20049;-85
2022/11/09 03:34:57;;;;;;;11.25;2.90;;;12.80;99.90;;;;;;5013138;28;20048;-85
2022/11/09 03:37:22;;;;;;;9.57;2.78;;;12.80;99.90;;;;;;5032496;28;20418;-85
2022/11/09 03:39:48;;;;;;;10.30;2.40;;;12.80;99.90;;;;;;5014983;28;20088;-85
2022/11/09 03:42:14;;;;;;;7.43;2.50;;;13.40;99.90;;;;;;5034140;28;20124;-84
2022/11/09 03:44:39;;;;;;;8.57;2.80;;;12.80;99.90;;;;;;5037179;28;20060;-85
2022/11/09 03:47:05;;;;;;;10.57;3.10;;;12.80;99.90;;;;;;5036560;28;20051;-85
2022/11/09 03:49:30;;;;;;;12.60;2.92;;;13.30;99.90;;;;;;5017655;28;20047;-84
2022/11/09 03:51:56;;;;;;;15.60;3.20;;;12.80;99.90;;;;;;5047131;28;20424;-84
2022/11/09 03:54:21;;;;;;;7.57;2.13;;;12.90;99.90;;;;;;5055746;28;20052;-85
2022/11/09 03:56:47;;;;;;;9.40;2.58;;;13.40;99.90;;;;;;5024157;28;20069;-85
2022/11/09 03:59:13;;;;;;;8.35;2.70;;;13.80;99.90;;;;;;5038327;28;20106;-85
2022/11/09 04:01:38;;;;;;;7.00;2.22;;;12.70;99.90;;;;;;5063703;28;20060;-85
2022/11/09 04:04:04;;;;;;;9.65;2.75;;;13.80;99.90;;;;;;5068465;28;20045;-85
2022/11/09 04:06:30;;;;;;;12.00;2.83;;;13.10;99.90;;;;;;5031806;28;20059;-85
2022/11/09 04:08:55;;;;;;;9.18;2.60;;;12.80;99.90;;;;;;5076247;28;20413;-84
2022/11/09 04:11:21;;;;;;;12.10;2.63;;;13.50;99.90;;;;;;5058312;28;20045;-84
2022/11/09 04:13:46;;;;;;;13.98;2.50;;;13.30;99.90;;;;;;5056685;28;20044;-83
2022/11/09 04:16:12;;;;;;;8.90;2.42;;;12.90;99.90;;;;;;5054954;28;20044;-84
2022/11/09 04:18:38;;;;;;;13.45;2.88;;;13.80;99.90;;;;;;5038120;28;20489;-83
2022/11/09 04:21:03;;;;;;;9.25;2.50;;;13.40;99.90;;;;;;5064566;28;20053;-83
2022/11/09 04:23:29;;;;;;;11.70;2.58;;;12.70;99.90;;;;;;5055839;28;20098;-84
2022/11/09 04:25:58;;;;;;;11.15;2.80;;;12.70;99.90;;;;;;5037891;28;20486;-84
2022/11/09 04:28:24;;;;;;;9.88;2.95;;;13.30;99.90;;;;;;5037854;28;20057;-84
2022/11/09 04:30:49;;;;;;;9.63;2.67;;;13.10;99.90;;;;;;5065125;28;20123;-84
2022/11/09 04:33:16;;;;;;;11.80;2.67;;;13.70;99.90;;;;;;5068088;28;20075;-84
2022/11/09 04:35:44;;;;;;;10.93;2.58;;;13.70;99.90;;;;;;5021220;28;20215;-85
2022/11/09 04:38:12;;;;;;;9.63;2.70;;;12.60;99.90;;;;;;5058408;28;20120;-84
2022/11/09 04:40:38;;;;;;;9.40;2.50;;;12.60;99.90;;;;;;5066903;28;20056;-84
2022/11/09 04:43:07;;;;;;;13.57;2.60;;;12.60;99.90;;;;;;5056244;28;20036;-85
2022/11/09 04:45:33;;;;;;;10.00;2.85;;;12.80;99.90;;;;;;5056370;28;20037;-85
2022/11/09 04:48:01;;;;;;;8.45;2.55;;;12.60;99.90;;;;;;5056829;28;20040;-84
2022/11/09 04:50:27;;;;;;;10.23;2.22;;;13.30;99.90;;;;;;5031870;28;20043;-84
2022/11/09 04:52:53;;;;;;;9.07;2.40;;;12.50;99.90;;;;;;5035693;28;20072;-85
2022/11/09 04:55:19;;;;;;;11.23;2.40;;;13.30;99.90;;;;;;5055493;28;20574;-84
2022/11/09 04:57:44;;;;;;;15.23;3.17;;;12.50;99.90;;;;;;5055502;28;20484;-85
2022/11/09 05:00:10;;;;;;;9.30;2.72;;;12.50;99.90;;;;;;5053905;28;20132;-84
2022/11/09 05:02:36;;;;;;;8.10;2.47;;;12.50;99.90;;;;;;5016987;28;20041;-85
2022/11/09 05:05:01;;;;;;;10.63;2.88;;;12.60;99.90;;;;;;5022220;28;20041;-85
2022/11/09 05:07:27;;;;;;;8.45;2.55;;;12.50;99.90;;;;;;5034390;28;20044;-84
2022/11/09 05:09:53;;;;;;;12.05;3.00;;;13.60;99.90;;;;;;5035694;28;20041;-84
2022/11/09 05:12:18;;;;;;;7.07;2.47;;;13.20;99.90;;;;;;5037622;28;20528;-84
2022/11/09 05:14:44;;;;;;;12.38;2.80;;;12.70;99.90;;;;;;5015750;28;20049;-84
2022/11/09 05:17:09;;;;;;;6.63;2.42;;;13.30;99.90;;;;;;5034892;28;20410;-84
2022/11/09 05:19:35;;;;;;;11.20;2.53;;;12.50;99.90;;;;;;5033754;28;20041;-84
2022/11/09 05:23:57;;;;;;;7.60;2.50;;;12.80;99.90;;;;;;5034411;28;20041;-84
2022/11/09 05:24:46;;;;;;;10.68;2.50;;;12.50;99.90;;;;;;5018188;28;20045;-84
2022/11/09 05:27:12;;;;;;;13.10;2.97;;;12.50;99.90;;;;;;5018427;28;20095;-84
2022/11/09 05:29:37;;;;;;;10.40;3.05;;;13.30;99.90;;;;;;5034736;28;20042;-85
2022/11/09 05:32:03;;;;;;;9.18;2.60;;;12.40;99.90;;;;;;5033190;28;20048;-85
2022/11/09 05:34:29;;;;;;;9.10;2.97;;;12.50;99.90;;;;;;5028765;28;20095;-84
2022/11/09 05:36:55;;;;;;;9.82;2.80;;;13.40;99.90;;;;;;5045798;28;20116;-85
2022/11/09 05:39:20;;;;;;;7.63;2.72;;;12.50;99.90;;;;;;5033533;28;20196;-85
2022/11/09 05:41:46;;;;;;;9.45;3.10;;;12.50;99.90;;;;;;5036535;28;20494;-85
2022/11/09 05:44:11;;;;;;;7.90;3.00;;;13.80;99.90;;;;;;5051276;28;20045;-85
2022/11/09 05:46:37;;;;;;;6.82;2.33;;;13.20;99.90;;;;;;5017048;28;20568;-85
2022/11/09 05:49:03;;;;;;;14.20;2.90;;;13.10;99.90;;;;;;5033268;28;20041;-84
2022/11/09 05:51:28;;;;;;;8.23;2.67;;;13.70;99.90;;;;;;5033234;28;20045;-84
2022/11/09 05:53:54;;;;;;;10.70;3.28;;;13.60;99.90;;;;;;5016523;28;20043;-85
2022/11/09 05:56:19;;;;;;;12.27;2.95;;;12.60;99.90;;;;;;5033433;28;20045;-85
2022/11/09 05:58:45;;;;;;;9.65;2.97;;;13.10;99.90;;;;;;5055236;28;20493;-85
2022/11/09 06:01:13;;;;;;;10.02;2.47;;;12.60;99.90;;;;;;5034737;28;20049;-84
2022/11/09 06:03:40;;;;;;;9.13;3.08;;;13.80;99.90;;;;;;5044460;28;20056;-84
2022/11/09 06:06:07;;;;;;;9.50;2.60;;;12.70;99.90;;;;;;5032352;28;20037;-84
2022/11/09 06:08:32;;;;;;;11.55;3.20;;;12.70;99.90;;;;;;5049288;28;20045;-85
2022/11/09 06:11:00;;;;;;;8.40;2.83;;;12.60;99.90;;;;;;5017724;28;20067;-84
2022/11/09 06:13:27;;;;;;;8.98;2.90;;;12.60;99.90;;;;;;5024186;28;20056;-84
2022/11/09 06:15:55;;;;;;;14.05;2.75;;;13.20;99.90;;;;;;5032569;28;20039;-86
2022/11/09 06:18:22;;;;;;;8.20;2.65;;;13.70;99.90;;;;;;5032637;28;20060;-86
2022/11/09 06:20:53;;;;;;;9.77;2.80;;;13.50;99.90;;;;;;5049302;28;20041;-83
2022/11/09 06:23:24;;;;;;;12.85;2.90;;;12.60;99.90;;;;;;5034883;28;20049;-83
2022/11/09 06:25:51;;;;;;;9.73;2.65;;;12.60;99.90;;;;;;5042755;28;20064;-84
2022/11/09 06:28:17;;;;;;;10.48;2.60;;;12.50;99.90;;;;;;5051684;28;20044;-84
2022/11/09 06:30:42;;;;;;;12.82;3.08;;;12.90;99.90;;;;;;5036481;28;20036;-85
2022/11/09 06:33:08;;;;;;;10.50;2.78;;;12.50;99.90;;;;;;5035228;28;20495;-85
2022/11/09 06:35:34;;;;;;;8.80;2.70;;;12.80;99.90;;;;;;5019639;28;20119;-83
2022/11/09 06:38:00;;;;;;;8.43;2.50;;;12.50;99.90;;;;;;5054000;28;20052;-85
2022/11/09 06:40:26;;;;;;;9.27;2.33;;;12.50;99.90;;;;;;5035338;28;20424;-86
2022/11/09 06:42:55;;;;;;;11.05;2.90;;;12.40;99.90;;;;;;5050732;28;20131;-85
2022/11/09 06:45:21;;;;;;;11.73;3.10;;;12.40;99.90;;;;;;5034001;28;20213;-85
2022/11/09 06:47:46;;;;;;;7.90;2.55;;;12.40;99.90;;;;;;5033103;28;20180;-83
2022/11/09 06:50:12;;;;;;;8.02;2.63;;;13.60;99.90;;;;;;5031628;28;20482;-85
2022/11/09 06:52:37;;;;;;;9.52;2.88;;;13.50;99.90;;;;;;5030912;28;20052;-85
2022/11/09 06:55:03;;;;;;;11.98;2.50;;;12.40;99.90;;;;;;5013555;28;20033;-85
2022/11/09 06:57:29;;;;;;;10.35;2.70;;;12.40;99.90;;;;;;5027956;28;20049;-85
2022/11/09 06:59:55;;;;;;;11.48;3.38;;;12.40;99.90;;;;;;5044463;28;20052;-87
2022/11/09 07:02:21;;;;;;;11.85;2.70;;;12.40;99.90;;;;;;5054318;28;20044;-86
2022/11/09 07:04:50;;;;;;;7.28;2.50;;;12.40;99.90;;;;;;5073474;28;20555;-85
2022/11/09 07:07:16;;;;;;;10.90;2.75;;;12.40;99.90;;;;;;5072429;28;20139;-85
2022/11/09 07:09:41;;;;;;;9.40;2.40;;;13.00;99.90;;;;;;5053690;28;20076;-85
2022/11/09 07:12:08;;;;;;;12.02;2.72;;;12.40;99.90;;;;;;5072386;28;20090;-85
2022/11/09 07:14:34;;;;;;;10.52;2.80;;;12.90;99.90;;;;;;5055176;28;20036;-84
2022/11/09 07:17:00;;;;;;;9.63;2.90;;;12.40;99.90;;;;;;5072542;28;20163;-85
2022/11/09 07:19:28;;;;;;;14.55;2.95;;;12.40;99.90;;;;;;5074336;28;20079;-84
2022/11/09 07:21:53;;;;;;;8.93;2.60;;;12.40;99.90;;;;;;5046004;28;20044;-85
2022/11/09 07:24:19;;;;;;;9.73;2.47;;;12.40;99.90;;;;;;5075809;28;20051;-84
2022/11/09 07:26:47;;;;;;;12.90;2.47;;;12.50;99.90;;;;;;5065457;28;20089;-85
2022/11/09 07:29:12;;;;;;;8.50;2.40;;;12.40;99.90;;;;;;5054185;28;20051;-85
2022/11/09 07:31:38;;;;;;;7.63;2.53;;;12.40;99.90;;;;;;5072144;28;20490;-85
2022/11/09 07:34:03;;;;;;;12.65;2.50;;;13.10;99.90;;;;;;5038810;28;20130;-84
2022/11/09 07:36:30;;;;;;;9.60;2.30;;;12.50;99.90;;;;;;5056489;28;20044;-85
2022/11/09 07:38:57;;;;;;;10.60;2.55;;;12.80;99.90;;;;;;5056344;28;20427;-85
2022/11/09 07:41:22;;;;;;;11.65;2.55;;;13.60;99.90;;;;;;5036802;28;20049;-85
2022/11/09 07:43:48;;;;;;;12.30;2.92;;;13.40;99.90;;;;;;5037465;28;20045;-85
2022/11/09 07:46:14;;;;;;;8.98;2.15;;;12.50;99.90;;;;;;5055095;28;20099;-85
2022/11/09 07:48:39;;;;;;;9.02;2.55;;;12.60;99.90;;;;;;5055135;28;20072;-85
2022/11/09 07:51:05;;;;;;;11.20;2.50;;;12.70;99.90;;;;;;5055214;28;20148;-85
2022/11/09 07:53:30;;;;;;;10.48;2.30;;;13.60;99.90;;;;;;5055592;28;20036;-85
2022/11/09 07:56:01;;;;;;;10.98;2.85;;;12.80;99.90;;;;;;5064157;28;20033;-86
2022/11/09 07:58:27;;;;;;;12.60;2.92;;;13.80;99.90;;;;;;5060698;28;20486;-86
2022/11/09 08:00:53;;;;;;;11.73;2.63;;;12.90;99.90;;;;;;5047982;28;20053;-85
2022/11/09 08:03:20;;;;;;;11.20;2.75;;;13.00;99.90;;;;;;5027826;28;20043;-85
2022/11/09 08:05:47;;;;;;;11.65;2.40;;;13.00;99.90;;;;;;5018465;28;20038;-85
2022/11/09 08:08:14;;;;;;;10.00;2.63;;;13.10;99.90;;;;;;5034731;28;20045;-85
2022/11/09 08:10:40;;;;;;;8.07;2.03;;;14.30;99.90;;;;;;5017171;28;20077;-85
2022/11/09 08:13:09;;;;;;;10.13;2.63;;;13.30;99.90;;;;;;5034564;28;20366;-85
2022/11/09 08:15:37;;;;;;;9.65;2.33;;;13.70;99.90;;;;;;5034562;28;20055;-83
2022/11/09 08:18:05;;;;;;;10.27;2.75;;;14.10;99.90;;;;;;5035368;28;20045;-83
2022/11/09 08:20:31;;;;;;;10.48;3.00;;;14.20;99.90;;;;;;5032782;28;20492;-84
2022/11/09 08:22:58;;;;;;;8.60;2.55;;;;;;;;;;5004611;28;20374;-84
2022/11/09 08:25:24;;;;;;;9.10;2.50;;;;;;;;;;5055764;28;20163;-84
2022/11/09 08:27:50;;;;;;;6.30;2.20;;;;;;;;;;5032464;28;20063;-84
2022/11/09 08:30:17;;;;;;;10.98;2.67;;;;;;;;;;5044091;28;20037;-84
2022/11/09 08:32:44;;;;;;;10.70;2.50;;;;;;;;;;5016352;28;20053;-84
2022/11/09 08:35:13;;;;;;;9.40;2.40;;;;;;;;;;5034371;28;20045;-84
2022/11/09 08:37:39;;;;;;;10.48;2.55;;;;;;;;;;5017013;28;20072;-84
2022/11/09 08:40:06;;;;;;;10.38;3.03;;;;;;;;;;5000019;28;20049;-86
2022/11/09 08:42:32;;;;;;;14.27;2.40;;;;;;;;;;5033352;28;20049;-87
2022/11/09 08:44:58;;;;;;;10.23;2.50;;;;;;;;;;5034310;28;20061;-86
2022/11/09 08:47:24;;;;;;;11.07;2.70;;;;;;;;;;5034319;28;20413;-84
2022/11/09 08:49:50;;;;;;;11.23;2.63;;;;;;;;;;5033837;28;20127;-84
2022/11/09 08:52:16;;;;;;;8.52;2.38;;;;;;;;;;5034175;28;20098;-84
2022/11/09 08:54:42;;;;;;;7.60;2.25;;;15.10;99.90;;;;;;5034558;28;20088;-84
2022/11/09 08:57:08;;;;;;;8.52;2.40;;;24.90;99.90;;;;;;5000346;28;20096;-84
2022/11/09 08:59:33;;;;;;;9.77;2.45;;;25.30;99.20;;;;;;5020281;28;20065;-85
2022/11/09 09:01:59;;;;;;;7.18;2.30;;;25.60;97.70;;;;;;5033070;28;20048;-85
2022/11/09 09:04:25;;;;;;;8.02;2.42;;;25.80;96.90;;;;;;5034893;28;20085;-85
2022/11/09 09:06:51;;;;;;;8.05;2.50;;;26.30;96.40;;;;;;5034545;28;20051;-85
2022/11/09 09:09:16;;;;;;;9.73;2.60;;;26.70;95.40;;;;;;5047276;28;20045;-85
2022/11/09 09:11:42;;;;;;;7.93;2.40;;;26.70;95.00;;;;;;5053320;28;20125;-83
2022/11/09 09:14:08;;;;;;;10.52;2.55;;;27.10;94.60;;;;;;5052450;28;20045;-82
2022/11/09 09:16:33;;;;;;;9.13;2.40;;;27.30;93.80;;;;;;5053236;28;20541;-82
2022/11/09 09:18:59;;;;;;;10.93;2.53;;;27.40;93.40;;;;;;5052629;28;20047;-83
2022/11/09 09:21:25;;;;;;;6.70;2.20;;;27.50;93.20;;;;;;5052301;28;20079;-86
2022/11/09 09:23:50;;;;;;;9.15;2.33;;;26.70;93.40;;;;;;5055517;28;20053;-85
2022/11/09 09:26:16;;;;;;;9.63;2.40;;;26.00;94.10;;;;;;5053716;28;20048;-84
2022/11/09 09:28:42;;;;;;;9.68;2.35;;;25.00;94.90;;;;;;5041824;28;20111;-85
2022/11/09 09:31:08;;;;;;;9.20;2.30;;;24.40;95.70;;;;;;5043849;28;20044;-85
2022/11/09 09:33:34;;;;;;;10.63;2.60;;;24.10;96.40;;;;;;5051850;28;20045;-84
2022/11/09 09:36:01;;;;;;;11.63;2.83;;;23.00;97.40;;;;;;5044910;28;20046;-84
2022/11/09 09:38:27;;;;;;;9.73;2.17;;;21.50;99.00;;;;;;5036161;28;20049;-85
2022/11/09 09:41:01;;;;;;;12.35;2.60;;;20.90;99.90;;;;;;5031294;28;20482;-85
2022/11/09 09:43:31;;;;;;;8.90;2.38;;;;;;;;;;5049346;28;20139;-86
2022/11/09 09:45:58;;;;;;;10.20;3.03;;;;;;;;;;5053780;28;20470;-87
2022/11/09 09:48:33;;;;;;;9.80;2.53;;;;;;;;;;5052899;28;20394;-87
2022/11/09 09:51:02;;;;;;;9.52;2.10;;;;;;;;;;5052961;28;20041;-89
2022/11/09 09:53:42;;;;;;;12.48;2.67;;;;;;;;;;5034185;28;20053;-87
2022/11/09 09:56:22;;;;;;;11.50;2.85;;;;;;;;;;5021148;28;20059;-87
2022/11/09 09:59:15;;;;;;;10.35;2.40;;;;;;;;;;5051002;28;20140;-87
2022/11/09 10:01:42;;;;;;;6.20;2.20;;;;;;;;;;4997949;28;20052;-87
2022/11/09 10:04:16;;;;;;;11.15;2.67;;;;;;;;;;5016662;28;20056;-87
2022/11/09 10:07:03;;;;;;;6.97;2.15;;;;;;;;;;5044914;28;20053;-89
2022/11/09 10:09:32;;;;;;;9.55;2.80;;;;;;;;;;5054091;28;20045;-86
2022/11/09 10:12:04;;;;;;;10.88;2.20;;;;;;;;;;5053870;28;20060;-86
2022/11/09 10:14:45;;;;;;;11.55;3.05;;;;;;;;;;5021369;28;20045;-86
2022/11/09 10:17:11;;;;;;;9.90;2.47;;;;;;;;;;5036780;28;20056;-86
2022/11/09 10:20:07;;;;;;;10.02;2.80;;;20.40;99.90;;;;;;5017373;28;20029;-86
2022/11/09 10:23:01;;;;;;;7.85;2.42;;;17.60;99.90;;;;;;5032915;28;20095;-86
2022/11/09 10:25:28;;;;;;;8.05;2.47;;;17.30;99.90;;;;;;5014712;28;20041;-85
2022/11/09 10:28:01;;;;;;;9.30;2.47;;;17.10;99.90;;;;;;5021776;28;20045;-85
2022/11/09 10:30:28;;;;;;;10.57;2.72;;;;;;;;;;5013749;28;20052;-86
2022/11/09 10:32:55;;;;;;;13.52;3.10;;;;;;;;;;5034283;28;20182;-86
2022/11/09 10:35:21;;;;;;;7.93;2.78;;;;;;;;;;5015303;28;20041;-86
2022/11/09 10:37:51;;;;;;;9.18;2.72;;;;;;;;;;5015310;28;20454;-87
2022/11/09 10:40:17;;;;;;;9.80;2.45;;;;;;;;;;5032979;28;20410;-86
2022/11/09 10:42:52;;;;;;;11.20;2.60;;;;;;;;;;5015044;28;20049;-88
2022/11/09 10:45:34;;;;;;;9.68;2.45;;;17.30;99.90;;;;;;5037266;28;20041;-86
2022/11/09 10:48:01;;;;;;;13.15;3.05;;;17.20;99.90;;;;;;5035543;28;20064;-85
2022/11/09 10:50:51;;;;;;;12.07;2.97;;;16.70;99.90;;;;;;5034605;28;20052;-85
2022/11/09 10:53:25;;;;;;;10.23;3.03;;;16.40;99.90;;;;;;5029282;28;20064;-86
2022/11/09 10:55:54;;;;;;;11.73;3.38;;;16.20;99.90;;;;;;5056327;28;20077;-85
2022/11/09 10:58:38;;;;;;;9.23;3.10;;;16.00;99.90;;;;;;5026480;28;20128;-86
2022/11/09 11:01:14;;;;;;;14.35;3.28;;;15.80;99.90;;;;;;5057063;28;20048;-86
2022/11/09 11:03:42;;;;;;;11.77;3.20;;;15.60;99.90;;;;;;5045908;28;20048;-89
2022/11/09 11:06:13;;;;;;;12.07;3.50;;;15.60;99.90;;;;;;5039968;28;20044;-87
2022/11/09 11:08:42;;;;;;;9.50;3.15;;;15.60;99.90;;;;;;5055252;28;20045;-87
2022/11/09 11:11:27;;;;;;;12.10;3.45;;;16.00;99.90;;;;;;5075421;28;20092;-87
2022/11/09 11:14:16;;;;;;;11.32;3.05;;;15.40;99.90;;;;;;5057446;28;20174;-86
2022/11/09 11:16:43;;;;;;;9.63;2.90;;;15.30;99.90;;;;;;5076078;28;20040;-87
2022/11/09 11:19:44;;;;;;;10.63;2.90;;;16.10;99.90;;;;;;5058955;28;20127;-86
2022/11/09 11:22:10;;;;;;;10.95;3.08;;;15.50;99.90;;;;;;4972709;28;20100;-87
2022/11/09 11:24:51;;;;;;;12.25;3.40;;;15.10;99.90;;;;;;5044327;28;20088;-87
2022/11/09 11:27:38;;;;;;;10.85;3.17;;;15.00;99.90;;;;;;5039784;28;20048;-88
2022/11/09 11:30:13;;;;;;;11.13;2.95;;;15.00;99.90;;;;;;5020838;28;20071;-87
2022/11/09 11:32:39;;;;;;;11.63;3.13;;;15.00;99.90;;;;;;5038115;28;20044;-87
2022/11/09 11:35:13;;;;;;;11.65;3.15;;;15.00;99.90;;;;;;5057326;28;20283;-87
2022/11/09 11:37:45;;;;;;;11.05;3.20;;;15.80;99.90;;;;;;5057008;28;20037;-87
2022/11/09 11:40:21;;;;;;;12.48;3.30;;;15.10;99.90;;;;;;5037747;28;20498;-87
2022/11/09 11:43:10;;;;;;;10.70;3.35;;;15.00;99.90;;;;;;5056815;28;20037;-87
2022/11/09 11:45:41;;;;;;;11.50;3.20;;;15.00;99.90;;;;;;5038545;28;20052;-87
2022/11/09 11:48:18;;;;;;;10.02;2.80;;;15.50;99.90;;;;;;5056536;28;20052;-87
2022/11/09 11:51:08;;;;;;;10.18;2.90;;;14.90;99.90;;;;;;5037141;28;20048;-88
2022/11/09 11:54:02;;;;;;;11.35;3.08;;;14.90;99.90;;;;;;5056125;28;20081;-87
2022/11/09 11:56:42;;;;;;;12.57;3.15;;;14.90;99.90;;;;;;5038355;28;20085;-87
2022/11/09 11:59:47;;;;;;;13.93;3.00;;;15.00;99.90;;;;;;5052531;28;20056;-86
2022/11/09 12:02:34;;;;;;;12.90;2.67;;;14.90;99.90;;;;;;5018520;28;20358;-87
2022/11/09 12:05:42;;;;;;;10.73;3.08;;;14.90;99.90;;;;;;5018051;28;20049;-87
2022/11/09 12:08:26;;;;;;;11.43;3.08;;;15.00;99.90;;;;;;5018403;28;20053;-87
2022/11/09 12:11:00;;;;;;;7.40;2.72;;;15.70;99.90;;;;;;5019815;28;20076;-87
2022/11/09 12:13:46;;;;;;;8.13;2.80;;;15.10;99.90;;;;;;5036834;28;20045;-87
2022/11/09 12:16:21;;;;;;;10.90;3.10;;;15.00;99.90;;;;;;5018438;28;20104;-86
2022/11/09 12:19:17;;;;;;;11.10;3.05;;;14.90;99.90;;;;;;5036068;28;20080;-86
2022/11/09 12:21:52;;;;;;;15.90;3.38;;;14.90;99.90;;;;;;5036985;28;20053;-86
2022/11/09 12:24:30;;;;;;;11.90;3.03;;;14.90;99.90;;;;;;5036588;28;20056;-87
2022/11/09 12:27:41;;;;;;;11.98;3.22;;;14.80;99.90;;;;;;5035640;28;20041;-88
2022/11/09 12:30:33;;;;;;;13.52;3.45;;;14.70;99.90;;;;;;5035654;28;20045;-87
2022/11/09 12:33:14;;;;;;;10.25;2.92;;;14.80;99.90;;;;;;5017867;28;20034;-86
2022/11/09 12:36:12;;;;;;;9.77;3.22;;;14.80;99.90;;;;;;5018126;28;20053;-88
2022/11/09 12:38:57;;;;;;;15.48;3.78;;;14.90;99.90;;;;;;4933216;28;20194;-88
2022/11/09 12:41:29;;;;;;;9.88;3.40;;;15.00;99.90;;;;;;5047804;28;20367;-87
2022/11/09 12:43:59;;;;;;;11.10;3.55;;;14.90;99.90;;;;;;5035153;28;20045;-88
2022/11/09 12:46:31;;;;;;;10.85;3.25;;;15.20;99.90;;;;;;5017239;28;20482;-87
2022/11/09 12:49:01;;;;;;;11.77;3.25;;;14.80;99.90;;;;;;5016598;28;20075;-88
2022/11/09 12:51:28;;;;;;;8.25;2.88;;;14.90;99.90;;;;;;5015402;28;20071;-88
2022/11/09 12:53:55;;;;;;;11.27;3.38;;;14.90;99.90;;;;;;5035653;28;20041;-89
2022/11/09 12:56:39;;;;;;;11.40;3.10;;;14.80;99.90;;;;;;5019762;28;20105;-88
2022/11/09 12:59:21;;;;;;;10.15;2.67;;;14.80;99.90;;;;;;5036323;28;20104;-89
2022/11/09 13:01:52;;;;;;;12.32;2.90;;;14.70;99.90;;;;;;5035284;28;20050;-89
2022/11/09 13:04:20;;;;;;;10.27;2.88;;;14.70;99.90;;;;;;5016260;28;20053;-89